Time;durP1;ratioP1;P1;durP2;ratioP2;P2;SDS_P1;SDS_P2;PMS_P1;PMS_P2;Temp;Humidity;BMP_temperature;BMP_pressure;BME280_temperature;BME280_humidity;BME280_pressure;Samples;Min_cycle;Max_cycle;Signal;HPM_P1;HPM_P2
2023/03/24 00:00:35;;;;;;;10.32;6.47;;;;;;;;;;10374807;28;20025;-53
2023/03/24 00:05:36;;;;;;;8.85;5.78;;;;;;;;;;10349993;28;20088;-54
2023/03/24 00:10:36;;;;;;;5.85;4.93;;;;;;;;;;10350620;28;20556;-53
2023/03/24 00:15:37;;;;;;;7.30;5.68;;;;;;;;;;10338082;28;20038;-49
2023/03/24 00:20:40;;;;;;;10.05;6.03;;;;;;;;;;10357021;28;20037;-53
2023/03/24 00:25:40;;;;;;;9.88;5.72;;;;;;;;;;10349605;28;20104;-49
2023/03/24 00:30:41;;;;;;;10.75;5.63;;;;;;;;;;10368395;28;20056;-53
2023/03/24 00:35:43;;;;;;;6.72;5.43;;;;;;;;;;10372883;28;20080;-52
2023/03/24 00:40:47;;;;;;;8.18;5.18;;;;;;;;;;10364524;28;20057;-53
2023/03/24 00:45:47;;;;;;;7.55;5.80;;;;;;;;;;10360993;28;20315;-53
2023/03/24 00:50:50;;;;;;;7.47;5.70;;;;;;;;;;10376595;28;20030;-52
2023/03/24 00:55:51;;;;;;;6.80;5.53;;;;;;;;;;10376510;28;20436;-53
2023/03/24 01:00:55;;;;;;;7.13;5.40;;;;;;;;;;10371962;28;20072;-50
2023/03/24 01:06:01;;;;;;;9.65;5.70;;;;;;;;;;10373329;28;20116;-51
2023/03/24 01:11:03;;;;;;;6.63;5.63;;;;;;;;;;10370707;28;20025;-52
2023/03/24 01:16:05;;;;;;;7.50;5.93;;;;;;;;;;10371302;28;20034;-49
2023/03/24 01:21:08;;;;;;;7.40;5.25;;;;;;;;;;10383795;28;20168;-52
2023/03/24 01:26:10;;;;;;;7.10;4.93;;;;;;;;;;10369044;28;20038;-52
2023/03/24 01:31:11;;;;;;;7.10;4.90;;;;;;;;;;10369084;28;20091;-48
2023/03/24 01:36:11;;;;;;;9.85;5.50;;;;;;;;;;10361358;28;20053;-49
2023/03/24 01:41:12;;;;;;;7.38;5.20;;;;;;;;;;10366785;28;20026;-50
2023/03/24 01:46:18;;;;;;;8.43;5.05;;;;;;;;;;10347012;28;20494;-48
2023/03/24 01:51:34;;;;;;;11.13;5.70;;;;;;;;;;10347600;28;20129;-48
2023/03/24 01:56:39;;;;;;;5.85;5.25;;;;;;;;;;10347320;28;20088;-50
2023/03/24 02:01:40;;;;;;;6.50;5.00;;;;;;;;;;10332107;28;20034;-53
2023/03/24 02:06:44;;;;;;;7.95;4.88;;;;;;;;;;10355623;28;20030;-53
2023/03/24 02:11:45;;;;;;;5.47;4.82;;;;;;;;;;10369236;28;20030;-55
2023/03/24 02:17:17;;;;;;;6.18;4.43;;;;;;;;;;10363003;28;20026;-51
2023/03/24 02:23:13;;;;;;;5.65;4.70;;;;;;;;;;10301044;28;20046;-53
2023/03/24 02:28:25;;;;;;;6.97;4.85;;;;;;;;;;10339884;28;20022;-52
2023/03/24 02:34:00;;;;;;;7.13;4.55;;;;;;;;;;10355697;28;20120;-54
2023/03/24 02:39:09;;;;;;;8.48;4.75;;;;;;;;;;10368852;28;20034;-52
2023/03/24 02:44:34;;;;;;;6.68;4.50;;;;;;;;;;10360278;28;20041;-52
2023/03/24 02:50:01;;;;;;;6.70;4.85;;;;;;;;;;10342158;28;20034;-51
2023/03/24 02:55:15;;;;;;;5.00;3.92;;;;;;;;;;10355070;28;20041;-52
2023/03/24 03:00:31;;;;;;;5.68;4.72;;;;;;;;;;10352743;28;20030;-50
2023/03/24 03:05:36;;;;;;;5.90;4.40;;;;;;;;;;10371808;28;20486;-53
2023/03/24 03:10:41;;;;;;;5.43;4.32;;;;;;;;;;10350780;28;20038;-53
2023/03/24 03:15:50;;;;;;;4.85;4.35;;;;;;;;;;10360574;28;20042;-55
2023/03/24 03:20:58;;;;;;;5.47;4.72;;;;;;;;;;10327947;28;20026;-51
2023/03/24 03:26:04;;;;;;;5.10;4.50;;;;;;;;;;10326659;28;20034;-53
2023/03/24 03:31:13;;;;;;;6.10;4.35;;;;;;;;;;10328548;28;20030;-52
2023/03/24 03:36:40;;;;;;;6.82;4.47;;;;;;;;;;10341205;28;20482;-53
2023/03/24 03:41:42;;;;;;;6.50;4.63;;;;;;;;;;10376405;28;20033;-53
2023/03/24 03:46:42;;;;;;;4.72;4.22;;;;;;;;;;10376217;28;20109;-54
2023/03/24 03:51:43;;;;;;;6.05;4.55;;;;;;;;;;10378393;28;20056;-52
2023/03/24 03:56:45;;;;;;;7.07;4.05;;;;;;;;;;10343990;28;20036;-53
2023/03/24 04:01:47;;;;;;;5.05;4.43;;;;;;;;;;10348678;28;20034;-53
2023/03/24 04:08:04;;;;;;;8.85;4.60;;;;;;;;;;10353998;28;20418;-53
2023/03/24 04:13:48;;;;;;;6.47;4.50;;;;;;;;;;10145579;29;20052;-52
2023/03/24 04:19:06;;;;;;;5.45;4.32;;;;;;;;;;10153159;29;20519;-52
2023/03/24 04:24:50;;;;;;;4.68;4.15;;;;;;;;;;10168027;29;20040;-53
2023/03/24 04:30:22;;;;;;;5.05;4.40;;;;;;;;;;10150380;29;20036;-51
2023/03/24 04:35:33;;;;;;;6.03;4.70;;;;;;;;;;10154860;29;20142;-52
2023/03/24 04:40:36;;;;;;;5.25;4.22;;;;;;;;;;10186067;28;20493;-52
2023/03/24 04:45:36;;;;;;;4.88;4.10;;;;;;;;;;10344121;28;20033;-53
2023/03/24 04:50:42;;;;;;;6.70;4.85;;;;;;;;;;10356367;28;20063;-54
2023/03/24 04:55:48;;;;;;;5.47;4.05;;;;;;;;;;10355693;28;20473;-54
2023/03/24 05:00:50;;;;;;;4.90;4.13;;;;;;;;;;10359520;28;20018;-53
2023/03/24 05:05:51;;;;;;;4.35;3.95;;;;;;;;;;10360680;28;20061;-54
2023/03/24 05:10:52;;;;;;;4.35;3.90;;;;;;;;;;10372698;28;20493;-53
2023/03/24 05:15:53;;;;;;;4.30;3.90;;;;;;;;;;10372569;28;20025;-52
2023/03/24 05:20:54;;;;;;;4.57;4.07;;;;;;;;;;10352318;28;20426;-52
2023/03/24 05:25:54;;;;;;;5.13;3.95;;;;;;;;;;10354843;28;20042;-53
2023/03/24 05:30:55;;;;;;;7.00;4.40;;;;;;;;;;10371994;28;20508;-52
2023/03/24 05:35:56;;;;;;;6.53;4.35;;;;;;;;;;10363301;28;20116;-51
2023/03/24 05:40:58;;;;;;;6.35;4.13;;;;;;;;;;10371226;28;20037;-52
2023/03/24 05:45:59;;;;;;;4.68;4.18;;;;;;;;;;10364553;28;20045;-51
2023/03/24 05:50:59;;;;;;;4.13;3.53;;;;;;;;;;10346067;28;20050;-50
2023/03/24 05:56:00;;;;;;;5.05;4.05;;;;;;;;;;10355458;28;20025;-50
2023/03/24 06:01:09;;;;;;;4.45;4.05;;;;;;;;;;10351772;28;20026;-53
2023/03/24 06:06:15;;;;;;;4.85;4.30;;;;;;;;;;10366481;28;20479;-55
2023/03/24 06:11:16;;;;;;;4.38;3.97;;;;;;;;;;10366126;28;20041;-52
2023/03/24 06:16:17;;;;;;;4.97;4.00;;;;;;;;;;10369309;28;20385;-52
2023/03/24 06:21:18;;;;;;;5.07;4.60;;;;;;;;;;10358928;28;20040;-52
2023/03/24 06:26:19;;;;;;;5.05;4.35;;;;;;;;;;10365595;28;20037;-53
2023/03/24 06:31:20;;;;;;;5.10;4.60;;;;;;;;;;10374910;28;20489;-49
2023/03/24 06:36:22;;;;;;;5.75;5.00;;;;;;;;;;10347908;28;20029;-55
2023/03/24 06:41:23;;;;;;;9.27;5.00;;;;;;;;;;10362094;28;20049;-49
2023/03/24 06:46:24;;;;;;;23.02;5.55;;;;;;;;;;10362080;28;20029;-53
2023/03/24 06:51:24;;;;;;;13.88;5.47;;;;;;;;;;10352066;28;20112;-50
2023/03/24 06:56:25;;;;;;;9.38;6.40;;;;;;;;;;10350628;28;20034;-54
2023/03/24 07:01:26;;;;;;;15.63;7.53;;;;;;;;;;10360360;28;20124;-51
2023/03/24 07:06:28;;;;;;;19.08;7.68;;;;;;;;;;10341618;28;20023;-53
2023/03/24 07:11:30;;;;;;;18.70;8.27;;;;;;;;;;10347924;28;20076;-50
2023/03/24 07:16:30;;;;;;;20.90;8.95;;;;;;;;;;10377361;28;20030;-50
2023/03/24 07:21:31;;;;;;;25.15;8.80;;;;;;;;;;10364525;28;20022;-54
2023/03/24 07:26:32;;;;;;;17.70;9.02;;;;;;;;;;10366950;28;20417;-50
2023/03/24 07:31:36;;;;;;;22.35;9.68;;;;;;;;;;10361110;28;20037;-51
2023/03/24 07:36:37;;;;;;;18.85;8.60;;;;;;;;;;10359520;28;20057;-50
2023/03/24 07:41:37;;;;;;;17.70;8.45;;;;;;;;;;10364714;28;20378;-49
2023/03/24 07:46:39;;;;;;;11.30;8.82;;;;;;;;;;10357707;28;20405;-49
2023/03/24 07:51:39;;;;;;;18.00;8.70;;;;;;;;;;10360480;28;20607;-53
2023/03/24 07:56:40;;;;;;;10.43;8.43;;;;;;;;;;10364979;28;20046;-53
2023/03/24 08:01:41;;;;;;;16.40;8.75;;;;;;;;;;10367213;28;20033;-53
2023/03/24 08:06:42;;;;;;;12.07;8.30;;;;;;;;;;10366105;28;20033;-54
2023/03/24 08:11:43;;;;;;;15.02;8.90;;;;;;;;;;10366530;28;20022;-54
2023/03/24 08:16:45;;;;;;;14.52;9.13;;;;;;;;;;10344617;28;20031;-52
2023/03/24 08:21:45;;;;;;;16.48;9.32;;;;;;;;;;10370500;28;20026;-52
2023/03/24 08:26:46;;;;;;;17.98;9.15;;;;;;;;;;10366841;28;20029;-54
2023/03/24 08:31:47;;;;;;;16.30;9.15;;;;;;;;;;10370183;28;20040;-55
2023/03/24 08:36:48;;;;;;;16.13;8.98;;;;;;;;;;10378680;28;20030;-52
2023/03/24 08:41:49;;;;;;;11.50;8.00;;;;;;;;;;10365848;28;20093;-49
2023/03/24 08:46:49;;;;;;;12.45;8.65;;;;;;;;;;10370537;28;20396;-52
2023/03/24 08:51:50;;;;;;;13.70;8.73;;;;;;;;;;10352447;28;20037;-53
2023/03/24 08:56:51;;;;;;;13.20;8.27;;;;;;;;;;10354689;28;20039;-53
2023/03/24 09:01:51;;;;;;;11.20;7.80;;;;;;;;;;10372573;28;20026;-52
2023/03/24 09:06:58;;;;;;;10.77;8.63;;;;;;;;;;10372572;28;20026;-53
2023/03/24 09:11:59;;;;;;;11.35;7.97;;;;;;;;;;10347659;28;20065;-53
2023/03/24 09:17:00;;;;;;;12.13;8.20;;;;;;;;;;10358674;28;20030;-53
2023/03/24 09:22:00;;;;;;;8.48;7.38;;;;;;;;;;10371730;28;20493;-53
2023/03/24 09:27:01;;;;;;;13.07;7.85;;;;;;;;;;10358555;28;20034;-52
2023/03/24 09:32:02;;;;;;;13.40;7.53;;;;;;;;;;10370745;28;20143;-53
2023/03/24 09:37:04;;;;;;;9.00;7.40;;;;;;;;;;10372257;28;20474;-52
2023/03/24 09:42:09;;;;;;;10.70;8.43;;;;;;;;;;10333871;28;20095;-55
2023/03/24 09:47:20;;;;;;;11.98;7.45;;;;;;;;;;10376270;28;20124;-53
2023/03/24 09:52:29;;;;;;;11.07;7.85;;;;;;;;;;10377618;28;20494;-51
2023/03/24 09:57:35;;;;;;;;;;;;;;;;;;10368733;28;20026;-53
2023/03/24 10:02:36;;;;;;;8.18;7.00;;;;;;;;;;10357783;28;19920;-53
2023/03/24 10:07:53;;;;;;;11.30;7.38;;;;;;;;;;10358400;28;20363;-53
2023/03/24 10:13:10;;;;;;;12.10;7.23;;;;;;;;;;10352620;28;20080;-52
2023/03/24 10:18:11;;;;;;;11.43;6.53;;;;;;;;;;10354750;28;20054;-51
2023/03/24 10:23:26;;;;;;;10.23;6.90;;;;;;;;;;10344732;28;20025;-53
2023/03/24 10:28:46;;;;;;;10.15;7.28;;;;;;;;;;10371239;28;20823;-55
2023/03/24 10:33:46;;;;;;;9.75;6.68;;;;;;;;;;10354554;28;20065;-53
2023/03/24 10:38:47;;;;;;;7.78;6.35;;;;;;;;;;10357006;28;20085;-54
2023/03/24 10:43:50;;;;;;;12.27;7.40;;;;;;;;;;10361130;28;20540;-52
2023/03/24 10:49:07;;;;;;;8.15;6.38;;;;;;;;;;10350018;28;20040;-53
2023/03/24 10:54:17;;;;;;;8.68;7.07;;;;;;;;;;10376778;28;20132;-53
2023/03/24 10:59:26;;;;;;;9.18;6.43;;;;;;;;;;10348280;28;20026;-51
2023/03/24 11:04:28;;;;;;;8.43;6.25;;;;;;;;;;10345012;28;20109;-54
2023/03/24 11:09:37;;;;;;;9.65;6.35;;;;;;;;;;10333058;28;20034;-51
2023/03/24 11:14:43;;;;;;;9.55;6.45;;;;;;;;;;10361247;28;20473;-50
2023/03/24 11:19:56;;;;;;;8.55;6.05;;;;;;;;;;10344206;28;20525;-51
2023/03/24 11:24:56;;;;;;;9.00;5.88;;;;;;;;;;10340153;28;20072;-53
2023/03/24 11:29:57;;;;;;;10.68;6.47;;;;;;;;;;10355909;28;20026;-52
2023/03/24 11:35:06;;;;;;;8.32;6.80;;;;;;;;;;10355961;28;20470;-53
2023/03/24 11:40:14;;;;;;;6.72;5.97;;;;;;;;;;10338577;28;20033;-52
2023/03/24 11:45:41;;;;;;;9.27;6.70;;;;;;;;;;10330625;28;20107;-54
2023/03/24 11:50:44;;;;;;;9.73;6.90;;;;;;;;;;10348978;28;20037;-53
2023/03/24 11:56:04;;;;;;;9.70;6.25;;;;;;;;;;10350425;28;20064;-50
2023/03/24 12:01:22;;;;;;;7.35;6.18;;;;;;;;;;10347961;28;20498;-49
2023/03/24 12:06:45;;;;;;;12.70;6.07;;;;;;;;;;10363715;28;20053;-49
2023/03/24 12:12:00;;;;;;;8.02;6.63;;;;;;;;;;10361427;28;20281;-49
2023/03/24 12:17:19;;;;;;;9.80;6.60;;;;;;;;;;10345656;28;20022;-52
2023/03/24 12:22:41;;;;;;;7.95;6.32;;;;;;;;;;10354477;28;20042;-51
2023/03/24 12:28:09;;;;;;;9.57;6.10;;;;;;;;;;10361169;28;20941;-52
2023/03/24 12:33:23;;;;;;;7.57;6.23;;;;;;;;;;10362483;28;20044;-51
2023/03/24 12:38:45;;;;;;;7.28;5.72;;;;;;;;;;10373352;28;20098;-53
2023/03/24 12:44:42;;;;;;;12.93;6.60;;;;;;;;;;10362491;28;20116;-53
2023/03/24 12:50:13;;;;;;;7.15;5.88;;;;;;;;;;10282424;28;20049;-50
2023/03/24 12:55:24;;;;;;;8.00;5.30;;;;;;;;;;10343423;28;20050;-53
2023/03/24 13:00:31;;;;;;;7.65;5.72;;;;;;;;;;10331970;28;20088;-53
2023/03/24 13:05:40;;;;;;;6.53;5.50;;;;;;;;;;10333430;28;20030;-53
2023/03/24 13:10:42;;;;;;;9.25;6.15;;;;;;;;;;10363143;28;20117;-52
2023/03/24 13:15:57;;;;;;;7.60;5.80;;;;;;;;;;10357004;28;21752;-50
2023/03/24 13:21:18;;;;;;;8.68;6.03;;;;;;;;;;10370075;28;20550;-53
2023/03/24 13:27:19;;;;;;;6.10;5.35;;;;;;;;;;10373837;28;20018;-49
2023/03/24 13:32:20;;;;;;;6.45;5.47;;;;;;;;;;10359325;28;20038;-50
2023/03/24 13:37:25;;;;;;;8.10;5.72;;;;;;;;;;10359620;28;20034;-55
2023/03/24 13:42:40;;;;;;;6.95;5.40;;;;;;;;;;10357805;28;20157;-53
2023/03/24 13:47:57;;;;;;;7.13;5.38;;;;;;;;;;10360621;28;20030;-53
2023/03/24 13:53:12;;;;;;;5.68;5.05;;;;;;;;;;10361356;28;20046;-51
2023/03/24 13:58:27;;;;;;;7.63;5.20;;;;;;;;;;10348168;28;20034;-51
2023/03/24 14:03:43;;;;;;;7.43;5.25;;;;;;;;;;10333726;28;20084;-54
2023/03/24 14:08:46;;;;;;;5.82;5.18;;;;;;;;;;10355384;28;20037;-53
2023/03/24 14:13:47;;;;;;;7.75;5.20;;;;;;;;;;10352782;28;20042;-52
2023/03/24 14:18:48;;;;;;;8.55;5.70;;;;;;;;;;10357956;28;20105;-50
2023/03/24 14:23:51;;;;;;;7.15;5.40;;;;;;;;;;10367910;28;20034;-52
2023/03/24 14:28:54;;;;;;;9.95;5.82;;;;;;;;;;10357889;28;20512;-55
2023/03/24 14:34:04;;;;;;;7.15;5.20;;;;;;;;;;10349336;28;20470;-51
2023/03/24 14:39:35;;;;;;;9.60;5.50;;;;;;;;;;10365627;28;20030;-51
2023/03/24 14:44:51;;;;;;;7.18;5.28;;;;;;;;;;10358504;28;20132;-52
2023/03/24 14:49:54;;;;;;;9.50;5.95;;;;;;;;;;10361168;28;20039;-49
2023/03/24 14:55:09;;;;;;;7.68;5.53;;;;;;;;;;10329141;28;20065;-53
2023/03/24 15:00:39;;;;;;;7.50;5.22;;;;;;;;;;10355297;28;20104;-53
2023/03/24 15:05:40;;;;;;;6.28;5.30;;;;;;;;;;10337175;28;20030;-53
2023/03/24 15:11:03;;;;;;;7.65;5.53;;;;;;;;;;10347725;28;20048;-52
2023/03/24 15:16:10;;;;;;;6.68;5.35;;;;;;;;;;10347732;28;20478;-52
2023/03/24 15:21:37;;;;;;;8.20;6.22;;;;;;;;;;10340616;28;20034;-52
2023/03/24 15:26:37;;;;;;;7.78;5.35;;;;;;;;;;10360198;28;20042;-53
2023/03/24 15:31:38;;;;;;;7.90;5.97;;;;;;;;;;10356290;28;20017;-54
2023/03/24 15:36:43;;;;;;;9.93;6.43;;;;;;;;;;10337267;28;20034;-52
2023/03/24 15:41:45;;;;;;;7.28;5.95;;;;;;;;;;10360089;28;20041;-53
2023/03/24 15:46:47;;;;;;;8.70;5.75;;;;;;;;;;10364930;28;20033;-49
2023/03/24 15:51:55;;;;;;;7.05;5.45;;;;;;;;;;10367940;28;20060;-49
2023/03/24 15:57:23;;;;;;;10.10;5.80;;;;;;;;;;10365092;28;20049;-51
2023/03/24 16:02:54;;;;;;;6.53;5.55;;;;;;;;;;10317590;28;20026;-54
2023/03/24 16:08:03;;;;;;;6.60;5.60;;;;;;;;;;10356498;28;20172;-52
2023/03/24 16:13:12;;;;;;;;;;;;;;;;;;10357652;28;20494;-52
2023/03/24 16:18:22;;;;;;;7.32;5.47;;;;;;;;;;10346687;28;19913;-52
2023/03/24 16:23:22;;;;;;;7.97;6.07;;;;;;;;;;10347648;28;20029;-52
2023/03/24 16:28:24;;;;;;;7.95;6.30;;;;;;;;;;10362794;28;20390;-52
2023/03/24 16:33:26;;;;;;;8.63;6.32;;;;;;;;;;10364876;28;20109;-51
2023/03/24 16:38:26;;;;;;;7.32;6.28;;;;;;;;;;10364265;28;20116;-52
2023/03/24 16:43:28;;;;;;;7.60;6.13;;;;;;;;;;10377532;28;20017;-52
2023/03/24 16:48:29;;;;;;;10.35;6.10;;;;;;;;;;10375278;28;20084;-52
2023/03/24 16:53:29;;;;;;;11.15;6.78;;;;;;;;;;10363662;28;20045;-49
2023/03/24 16:58:30;;;;;;;9.15;7.00;;;;;;;;;;10364678;28;20037;-52
2023/03/24 17:03:31;;;;;;;7.03;6.32;;;;;;;;;;10371215;28;20022;-52
2023/03/24 17:08:32;;;;;;;8.90;6.55;;;;;;;;;;10357959;28;20026;-52
2023/03/24 17:13:33;;;;;;;10.52;6.55;;;;;;;;;;10364271;28;20392;-52
2023/03/24 17:18:38;;;;;;;11.63;6.13;;;;;;;;;;10362300;28;20258;-50
2023/03/24 17:23:38;;;;;;;7.35;5.88;;;;;;;;;;10371244;28;20445;-51
2023/03/24 17:28:39;;;;;;;9.68;7.05;;;;;;;;;;10358392;28;20088;-51
2023/03/24 17:33:40;;;;;;;21.52;11.98;;;;;;;;;;10365022;28;20321;-52
2023/03/24 17:38:42;;;;;;;23.52;14.70;;;;;;;;;;10356377;28;20075;-53
2023/03/24 17:43:45;;;;;;;21.55;11.48;;;;;;;;;;10368600;28;20212;-49
2023/03/24 17:48:45;;;;;;;17.48;10.07;;;;;;;;;;10366418;28;20045;-51
2023/03/24 17:53:46;;;;;;;11.68;9.00;;;;;;;;;;10340233;28;20049;-51
2023/03/24 17:58:46;;;;;;;10.43;8.77;;;;;;;;;;10367878;28;20061;-51
2023/03/24 18:03:48;;;;;;;12.32;7.97;;;;;;;;;;10358788;28;20022;-53
2023/03/24 18:08:52;;;;;;;9.10;7.60;;;;;;;;;;10370644;28;20493;-51
2023/03/24 18:13:53;;;;;;;12.90;8.20;;;;;;;;;;10361763;28;20033;-51
2023/03/24 18:18:53;;;;;;;10.85;7.88;;;;;;;;;;10349361;28;20391;-51
2023/03/24 18:23:55;;;;;;;10.55;7.50;;;;;;;;;;10341166;28;20030;-52
2023/03/24 18:28:55;;;;;;;22.33;8.30;;;;;;;;;;10349693;28;20037;-53
2023/03/24 18:33:56;;;;;;;16.67;8.80;;;;;;;;;;10377174;28;20622;-52
2023/03/24 18:39:04;;;;;;;21.48;8.60;;;;;;;;;;10354901;28;20486;-52
2023/03/24 18:44:11;;;;;;;16.05;8.23;;;;;;;;;;10344628;28;20373;-53
2023/03/24 18:49:13;;;;;;;18.70;8.73;;;;;;;;;;10337034;28;20061;-51
2023/03/24 18:54:14;;;;;;;12.88;7.78;;;;;;;;;;10336667;28;20145;-51
2023/03/24 18:59:14;;;;;;;20.80;8.82;;;;;;;;;;10346392;28;20026;-49
2023/03/24 19:04:16;;;;;;;16.23;7.78;;;;;;;;;;10358798;28;20034;-49
2023/03/24 19:09:21;;;;;;;12.43;7.70;;;;;;;;;;10351207;28;20481;-49
2023/03/24 19:14:24;;;;;;;13.80;8.10;;;;;;;;;;10353382;28;20297;-51
2023/03/24 19:19:26;;;;;;;15.02;8.10;;;;;;;;;;10347622;28;20239;-48
2023/03/24 19:24:27;;;;;;;12.38;7.40;;;;;;;;;;10341426;28;20396;-51
2023/03/24 19:29:27;;;;;;;19.00;9.05;;;;;;;;;;10344800;28;20042;-52
2023/03/24 19:34:28;;;;;;;14.85;7.80;;;;;;;;;;10346708;28;20034;-53
2023/03/24 19:39:29;;;;;;;13.70;7.43;;;;;;;;;;10347498;28;20075;-53
2023/03/24 19:44:30;;;;;;;10.68;7.00;;;;;;;;;;10348751;28;20033;-53
2023/03/24 19:49:31;;;;;;;11.43;7.45;;;;;;;;;;10347965;28;20068;-53
2023/03/24 19:54:31;;;;;;;10.52;7.85;;;;;;;;;;10351759;28;20137;-53
2023/03/24 19:59:33;;;;;;;14.02;8.18;;;;;;;;;;10348087;28;20358;-52
2023/03/24 20:04:34;;;;;;;13.95;7.35;;;;;;;;;;10350714;28;20022;-53
2023/03/24 20:09:35;;;;;;;16.45;7.85;;;;;;;;;;10349404;28;20026;-52
2023/03/24 20:14:35;;;;;;;15.55;7.72;;;;;;;;;;10352555;28;20418;-53
2023/03/24 20:19:36;;;;;;;11.65;7.78;;;;;;;;;;10354535;28;20069;-52
2023/03/24 20:24:37;;;;;;;17.50;7.90;;;;;;;;;;10354825;28;20033;-52
2023/03/24 20:29:38;;;;;;;12.85;8.20;;;;;;;;;;10341086;28;20207;-53
2023/03/24 20:34:39;;;;;;;15.13;7.70;;;;;;;;;;10355627;28;20113;-54
2023/03/24 20:39:42;;;;;;;13.38;8.43;;;;;;;;;;10355982;28;20493;-54
2023/03/24 20:44:43;;;;;;;12.05;7.80;;;;;;;;;;10355300;28;20084;-53
2023/03/24 20:49:43;;;;;;;11.73;8.23;;;;;;;;;;10358569;28;20428;-53
2023/03/24 20:54:44;;;;;;;14.35;8.70;;;;;;;;;;10365165;28;20038;-54
2023/03/24 20:59:47;;;;;;;13.05;8.85;;;;;;;;;;10373394;28;20021;-53
2023/03/24 21:04:48;;;;;;;12.13;9.30;;;;;;;;;;10373078;28;20029;-52
2023/03/24 21:09:48;;;;;;;10.43;7.43;;;;;;;;;;10374385;28;20374;-53
2023/03/24 21:14:49;;;;;;;13.05;8.90;;;;;;;;;;10364575;28;20413;-53
2023/03/24 21:19:53;;;;;;;8.98;7.40;;;;;;;;;;10368379;28;20413;-52
2023/03/24 21:24:58;;;;;;;15.05;8.25;;;;;;;;;;10370953;28;20401;-51
2023/03/24 21:29:59;;;;;;;11.38;7.93;;;;;;;;;;10356923;28;20044;-52
2023/03/24 21:34:59;;;;;;;10.27;8.13;;;;;;;;;;10360554;28;20370;-53
2023/03/24 21:40:01;;;;;;;11.30;7.88;;;;;;;;;;10369808;28;20030;-53
2023/03/24 21:45:04;;;;;;;9.15;7.72;;;;;;;;;;10372285;28;20026;-52
2023/03/24 21:50:06;;;;;;;10.65;7.53;;;;;;;;;;10371017;28;20033;-53
2023/03/24 21:55:09;;;;;;;11.25;7.85;;;;;;;;;;10365241;28;20060;-51
2023/03/24 22:00:13;;;;;;;12.20;7.18;;;;;;;;;;10361313;28;20623;-57
2023/03/24 22:05:19;;;;;;;8.90;7.35;;;;;;;;;;10362940;28;20034;-52
2023/03/24 22:10:28;;;;;;;10.13;7.03;;;;;;;;;;10369561;28;20030;-52
2023/03/24 22:15:30;;;;;;;10.43;7.10;;;;;;;;;;10364867;28;20038;-52
2023/03/24 22:20:32;;;;;;;9.23;6.97;;;;;;;;;;10367388;28;20489;-51
2023/03/24 22:25:33;;;;;;;12.90;7.30;;;;;;;;;;10367837;28;20041;-53
2023/03/24 22:30:33;;;;;;;10.63;6.18;;;;;;;;;;10351082;28;20018;-52
2023/03/24 22:35:38;;;;;;;10.18;6.57;;;;;;;;;;10367126;28;20038;-53
2023/03/24 22:40:39;;;;;;;9.90;6.10;;;;;;;;;;10355363;28;20035;-52
2023/03/24 22:45:42;;;;;;;9.18;6.22;;;;;;;;;;10358477;28;20201;-52
2023/03/24 22:50:43;;;;;;;14.18;6.78;;;;;;;;;;10333438;28;20033;-53
2023/03/24 22:55:43;;;;;;;16.45;7.25;;;;;;;;;;10351993;28;20382;-49
2023/03/24 23:00:47;;;;;;;19.42;6.70;;;;;;;;;;10359361;28;20393;-54
2023/03/24 23:05:48;;;;;;;13.10;6.60;;;;;;;;;;10347531;28;20499;-51
2023/03/24 23:10:48;;;;;;;11.07;6.10;;;;;;;;;;10362409;28;20028;-52
2023/03/24 23:15:50;;;;;;;8.10;5.93;;;;;;;;;;10361837;28;20033;-52
2023/03/24 23:21:02;;;;;;;17.05;6.80;;;;;;;;;;10366390;28;20611;-50
2023/03/24 23:26:05;;;;;;;15.63;6.13;;;;;;;;;;10358485;28;20107;-52
2023/03/24 23:31:23;;;;;;;12.40;6.05;;;;;;;;;;10368093;28;20030;-53
2023/03/24 23:36:25;;;;;;;10.50;5.93;;;;;;;;;;10367823;28;20493;-52
2023/03/24 23:41:25;;;;;;;7.43;5.57;;;;;;;;;;10348023;28;20045;-52
2023/03/24 23:46:26;;;;;;;11.25;6.03;;;;;;;;;;10345765;28;20041;-49
2023/03/24 23:51:27;;;;;;;8.60;5.50;;;;;;;;;;10373851;28;20037;-54
2023/03/24 23:56:29;;;;;;;12.02;5.60;;;;;;;;;;10363951;28;20044;-49
